West Swanzey, New Hampshire
Current Conditions -  °F | °C
As of 1:55 AM on Thursday 23 Oct 2014 (Local Time) from KEEN Reporting Station
Overcast Overcast  
Wind Chill: 44°   Ceiling: 1800
Heat Index: 48°   Visibility: 10mi
Dew Point: 39°   Wind: 10mph
Humidity: 71%   Direction: 10°N
Pressure: 29.86"   Gusts: 18mph
Location:  42.87°N, 72.32°W
Report Text: KEEN 230555Z AUTO 01009G16KT 10SM OVC018 09/04 A2986 RMK AO1 P0004 60018 10090 20090 57017
Loading
Personal Weather Stations






























Interactive Weather Map
Tropical Storm Tracking
New forecast layout! Learn more

10-Day Weather Forecast

Advertisements
Track Severe Weather on mobile